Royal Princess — ZCDV2 — position and weather

sailwx.info

Track history (hours):
 
Tides and Currents Weather Stations Pressure Air Temp Water Temp Dewpoint Dewpoint Depression Visibility Wind Speed Wind Dir Waves Ship Positions

Royal Princess

Last reported at 2017-Nov-19 23:39 UTC. Time now 2017-Nov-22 13:05 UTC.
Position N 15°55' W 061°30'.

Type: Passenger vessel. MMSI: 310530000.

Date/timePositionNaut miles runAvg speedWind from/ knotsBaromVisibWave heightAir tempDewpointWater temp
2017-Nov-19 23:39N 15°55' W 061°30'212.0
2017-Nov-19 23:30N 15°57' W 061°30'612.5
2017-Nov-19 23:00N 16°03' W 061°30'612.2
2017-Nov-19 22:30N 16°09' W 061°30'4 8.5
2017-Nov-19 22:00N 16°13' W 061°32'1 0.6
2017-Nov-19 19:51N 16°14' W 061°32'0 0.0
2017-Nov-19 19:00N 16°14' W 061°32'0 0.0
2017-Nov-19 17:30N 16°14' W 061°32'0 0.0
2017-Nov-19 12:30N 16°14' W 061°32'0 0.0
2017-Nov-19 11:57N 16°14' W 061°32'0 0.0
2017-Nov-19 11:27N 16°14' W 061°32'1 2.1
2017-Nov-19 11:00N 16°13' W 061°32'510.0
2017-Nov-19 10:30N 16°09' W 061°30'26 9.8
2017-Nov-19 07:48N 15°43' W 061°35'611.1
2017-Nov-19 07:16N 15°40' W 061°40'311.0
2017-Nov-19 07:00N 15°38' W 061°42'63 9.5
2017-Nov-19 00:21N 14°35' W 061°36'412.5
2017-Nov-19 00:00N 14°35' W 061°31'811.9
2017-Nov-18 23:17N 14°35' W 061°22'311.6
2017-Nov-18 23:00N 14°35' W 061°19'611.7
2017-Nov-18 22:30N 14°35' W 061°13'611.7
2017-Nov-18 22:01N 14°35' W 061°07'3 4.3
2017-Nov-18 21:25N 14°36' W 061°04'0 0.0
2017-Nov-18 20:55N 14°36' W 061°04'0 0.0
2017-Nov-18 20:25N 14°36' W 061°04'0 0.0
2017-Nov-18 19:55N 14°36' W 061°04'0 0.0
2017-Nov-18 19:25N 14°36' W 061°04'0 0.0
2017-Nov-18 18:55N 14°36' W 061°04'0 0.0
2017-Nov-18 18:25N 14°36' W 061°04'0 0.0
2017-Nov-18 17:55N 14°36' W 061°04'0 0.0
2017-Nov-18 17:25N 14°36' W 061°04'0 0.0
2017-Nov-18 16:55N 14°36' W 061°04'0 0.0
2017-Nov-18 16:25N 14°36' W 061°04'0 0.0
2017-Nov-18 15:55N 14°36' W 061°04'0 0.0
2017-Nov-18 15:25N 14°36' W 061°04'0 0.0
2017-Nov-18 15:00N 14°36' W 061°04'0 0.0
2017-Nov-18 14:30N 14°36' W 061°04'0 0.0
2017-Nov-18 14:00N 14°36' W 061°04'0 0.0
2017-Nov-18 13:27N 14°36' W 061°04'0 0.0
2017-Nov-18 13:00N 14°36' W 061°04'0 0.0
2017-Nov-18 12:30N 14°36' W 061°04'3 5.5
2017-Nov-18 11:56N 14°35' W 061°07'4 9.1
2017-Nov-18 11:30N 14°31' W 061°09'510.5
2017-Nov-18 11:00N 14°26' W 061°09'  
2017-Nov-12 01:49N 14°48' W 061°32'3 9.2
2017-Nov-12 01:30N 14°45' W 061°30'5 9.0
2017-Nov-12 00:59N 14°41' W 061°28'4 8.9
2017-Nov-12 00:30N 14°38' W 061°25'4 7.9
2017-Nov-11 23:57N 14°35' W 061°21'4 8.4
2017-Nov-11 23:30N 14°35' W 061°17'6 8.7
2017-Nov-11 22:51N 14°35' W 061°12'3 8.9
2017-Nov-11 22:31N 14°35' W 061°08'4 7.4
2017-Nov-11 22:00N 14°36' W 061°05'0 0.6
2017-Nov-11 21:29N 14°36' W 061°04'0 0.0
2017-Nov-11 20:56N 14°36' W 061°04'0 0.0
2017-Nov-11 20:29N 14°36' W 061°04'0 0.0
2017-Nov-11 11:22N 14°36' W 061°04'2 6.0
2017-Nov-11 11:00N 14°35' W 061°07'510.4
2017-Nov-11 10:30N 14°36' W 061°12'3813.7
2017-Nov-11 07:42N 15°09' W 061°33'514.2
2017-Nov-11 07:21N 15°13' W 061°35'614.6
2017-Nov-11 06:59N 15°18' W 061°38'714.6
2017-Nov-11 06:31N 15°24' W 061°42'714.2
2017-Nov-11 06:01N 15°30' W 061°45'4213.7
2017-Nov-11 02:57N 16°06' W 062°07'614.5
2017-Nov-11 02:30N 16°12' W 062°11'714.7
2017-Nov-11 02:00N 16°18' W 062°15'714.6
2017-Nov-11 01:30N 16°25' W 062°18'714.5
2017-Nov-11 01:00N 16°31' W 062°22'714.4
2017-Nov-11 00:30N 16°37' W 062°26'714.1
2017-Nov-11 00:00N 16°43' W 062°30'3612.9
2017-Nov-10 21:10N 17°17' W 062°43'0 0.0
2017-Nov-10 10:12N 17°17' W 062°43'22 3.7
2017-Nov-10 04:17N 17°39' W 062°42'511.5
2017-Nov-10 03:50N 17°39' W 062°37'411.4
2017-Nov-10 03:30N 17°39' W 062°33'611.5
2017-Nov-10 03:00N 17°39' W 062°27'611.4
2017-Nov-10 02:30N 17°39' W 062°21'611.3
2017-Nov-10 02:00N 17°39' W 062°15'5 9.7
2017-Nov-10 01:30N 17°35' W 062°11'611.3
2017-Nov-10 01:00N 17°30' W 062°10'611.5
2017-Nov-10 00:30N 17°24' W 062°09'611.5
2017-Nov-10 00:00N 17°18' W 062°08'  
Track history (hours):
 
Tides and Currents Weather Stations Pressure Air Temp Water Temp Dewpoint Dewpoint Depression Visibility Wind Speed Wind Dir Waves Ship Positions

Royal Princess

Last reported at 2017-Nov-19 23:39 UTC. Time now 2017-Nov-22 13:05 UTC.
Position N 15°55' W 061°30'.

Type: Passenger vessel. MMSI: 310530000.

Date/timePositionNaut miles runAvg speedWind from/ knotsBaromVisibWave heightAir tempDewpointWater temp
2017-Nov-19 23:39N 15°55' W 061°30'212.0
2017-Nov-19 23:30N 15°57' W 061°30'612.5
2017-Nov-19 23:00N 16°03' W 061°30'612.2
2017-Nov-19 22:30N 16°09' W 061°30'4 8.5
2017-Nov-19 22:00N 16°13' W 061°32'1 0.6
2017-Nov-19 19:51N 16°14' W 061°32'0 0.0
2017-Nov-19 19:00N 16°14' W 061°32'0 0.0
2017-Nov-19 17:30N 16°14' W 061°32'0 0.0
2017-Nov-19 12:30N 16°14' W 061°32'0 0.0
2017-Nov-19 11:57N 16°14' W 061°32'0 0.0
2017-Nov-19 11:27N 16°14' W 061°32'1 2.1
2017-Nov-19 11:00N 16°13' W 061°32'510.0
2017-Nov-19 10:30N 16°09' W 061°30'26 9.8
2017-Nov-19 07:48N 15°43' W 061°35'611.1
2017-Nov-19 07:16N 15°40' W 061°40'311.0
2017-Nov-19 07:00N 15°38' W 061°42'63 9.5
2017-Nov-19 00:21N 14°35' W 061°36'412.5
2017-Nov-19 00:00N 14°35' W 061°31'811.9
2017-Nov-18 23:17N 14°35' W 061°22'311.6
2017-Nov-18 23:00N 14°35' W 061°19'611.7
2017-Nov-18 22:30N 14°35' W 061°13'611.7
2017-Nov-18 22:01N 14°35' W 061°07'3 4.3
2017-Nov-18 21:25N 14°36' W 061°04'0 0.0
2017-Nov-18 20:55N 14°36' W 061°04'0 0.0
2017-Nov-18 20:25N 14°36' W 061°04'0 0.0
2017-Nov-18 19:55N 14°36' W 061°04'0 0.0
2017-Nov-18 19:25N 14°36' W 061°04'0 0.0
2017-Nov-18 18:55N 14°36' W 061°04'0 0.0
2017-Nov-18 18:25N 14°36' W 061°04'0 0.0
2017-Nov-18 17:55N 14°36' W 061°04'0 0.0
2017-Nov-18 17:25N 14°36' W 061°04'0 0.0
2017-Nov-18 16:55N 14°36' W 061°04'0 0.0
2017-Nov-18 16:25N 14°36' W 061°04'0 0.0
2017-Nov-18 15:55N 14°36' W 061°04'0 0.0
2017-Nov-18 15:25N 14°36' W 061°04'0 0.0
2017-Nov-18 15:00N 14°36' W 061°04'0 0.0
2017-Nov-18 14:30N 14°36' W 061°04'0 0.0
2017-Nov-18 14:00N 14°36' W 061°04'0 0.0
2017-Nov-18 13:27N 14°36' W 061°04'0 0.0
2017-Nov-18 13:00N 14°36' W 061°04'0 0.0
2017-Nov-18 12:30N 14°36' W 061°04'3 5.5
2017-Nov-18 11:56N 14°35' W 061°07'4 9.1
2017-Nov-18 11:30N 14°31' W 061°09'510.5
2017-Nov-18 11:00N 14°26' W 061°09'  
2017-Nov-12 01:49N 14°48' W 061°32'3 9.2
2017-Nov-12 01:30N 14°45' W 061°30'5 9.0
2017-Nov-12 00:59N 14°41' W 061°28'4 8.9
2017-Nov-12 00:30N 14°38' W 061°25'4 7.9
2017-Nov-11 23:57N 14°35' W 061°21'4 8.4
2017-Nov-11 23:30N 14°35' W 061°17'6 8.7
2017-Nov-11 22:51N 14°35' W 061°12'3 8.9
2017-Nov-11 22:31N 14°35' W 061°08'4 7.4
2017-Nov-11 22:00N 14°36' W 061°05'0 0.6
2017-Nov-11 21:29N 14°36' W 061°04'0 0.0
2017-Nov-11 20:56N 14°36' W 061°04'0 0.0
2017-Nov-11 20:29N 14°36' W 061°04'0 0.0
2017-Nov-11 11:22N 14°36' W 061°04'2 6.0
2017-Nov-11 11:00N 14°35' W 061°07'510.4
2017-Nov-11 10:30N 14°36' W 061°12'3813.7
2017-Nov-11 07:42N 15°09' W 061°33'514.2
2017-Nov-11 07:21N 15°13' W 061°35'614.6
2017-Nov-11 06:59N 15°18' W 061°38'714.6
2017-Nov-11 06:31N 15°24' W 061°42'714.2
2017-Nov-11 06:01N 15°30' W 061°45'4213.7
2017-Nov-11 02:57N 16°06' W 062°07'614.5
2017-Nov-11 02:30N 16°12' W 062°11'714.7
2017-Nov-11 02:00N 16°18' W 062°15'714.6
2017-Nov-11 01:30N 16°25' W 062°18'714.5
2017-Nov-11 01:00N 16°31' W 062°22'714.4
2017-Nov-11 00:30N 16°37' W 062°26'714.1
2017-Nov-11 00:00N 16°43' W 062°30'3612.9
2017-Nov-10 21:10N 17°17' W 062°43'0 0.0
2017-Nov-10 10:12N 17°17' W 062°43'22 3.7
2017-Nov-10 04:17N 17°39' W 062°42'511.5
2017-Nov-10 03:50N 17°39' W 062°37'411.4
2017-Nov-10 03:30N 17°39' W 062°33'611.5
2017-Nov-10 03:00N 17°39' W 062°27'611.4
2017-Nov-10 02:30N 17°39' W 062°21'611.3
2017-Nov-10 02:00N 17°39' W 062°15'5 9.7
2017-Nov-10 01:30N 17°35' W 062°11'611.3
2017-Nov-10 01:00N 17°30' W 062°10'611.5
2017-Nov-10 00:30N 17°24' W 062°09'611.5
2017-Nov-10 00:00N 17°18' W 062°08'  

Dump ship's entire track history